sensor_id;sensor_type;location;lat;lon;timestamp;P1;durP1;ratioP1;P2;durP2;ratioP2
24435;SDS011;12616;52.470;13.436;2022-11-15T00:01:34;60.05;;;32.55;;
24435;SDS011;12616;52.470;13.436;2022-11-15T00:04:23;54.35;;;33.17;;
24435;SDS011;12616;52.470;13.436;2022-11-15T00:14:03;48.30;;;30.63;;
24435;SDS011;12616;52.470;13.436;2022-11-15T00:23:24;48.30;;;30.73;;
24435;SDS011;12616;52.470;13.436;2022-11-15T00:26:41;50.88;;;31.67;;
24435;SDS011;12616;52.470;13.436;2022-11-15T00:54:31;58.72;;;32.17;;
24435;SDS011;12616;52.470;13.436;2022-11-15T00:57:01;53.63;;;28.52;;
24435;SDS011;12616;52.470;13.436;2022-11-15T00:59:29;50.60;;;30.52;;
24435;SDS011;12616;52.470;13.436;2022-11-15T01:01:56;53.47;;;31.95;;
24435;SDS011;12616;52.470;13.436;2022-11-15T01:04:23;49.55;;;31.45;;
24435;SDS011;12616;52.470;13.436;2022-11-15T01:06:52;53.13;;;29.73;;
24435;SDS011;12616;52.470;13.436;2022-11-15T01:09:25;54.20;;;32.10;;
24435;SDS011;12616;52.470;13.436;2022-11-15T01:11:56;50.90;;;29.88;;
24435;SDS011;12616;52.470;13.436;2022-11-15T01:14:27;56.95;;;32.10;;
24435;SDS011;12616;52.470;13.436;2022-11-15T01:17:01;52.50;;;31.33;;
24435;SDS011;12616;52.470;13.436;2022-11-15T01:19:28;56.25;;;31.88;;
24435;SDS011;12616;52.470;13.436;2022-11-15T01:22:04;50.35;;;30.27;;
24435;SDS011;12616;52.470;13.436;2022-11-15T01:24:36;53.88;;;32.38;;
24435;SDS011;12616;52.470;13.436;2022-11-15T01:27:03;50.70;;;31.25;;
24435;SDS011;12616;52.470;13.436;2022-11-15T01:29:32;58.10;;;33.65;;
24435;SDS011;12616;52.470;13.436;2022-11-15T01:32:00;53.70;;;31.40;;
24435;SDS011;12616;52.470;13.436;2022-11-15T01:34:27;56.45;;;31.85;;
24435;SDS011;12616;52.470;13.436;2022-11-15T01:36:54;53.78;;;31.55;;
24435;SDS011;12616;52.470;13.436;2022-11-15T01:39:25;55.92;;;31.92;;
24435;SDS011;12616;52.470;13.436;2022-11-15T01:41:54;48.05;;;32.00;;
24435;SDS011;12616;52.470;13.436;2022-11-15T01:44:38;54.30;;;31.23;;
24435;SDS011;12616;52.470;13.436;2022-11-15T01:47:08;49.13;;;30.10;;
24435;SDS011;12616;52.470;13.436;2022-11-15T01:49:40;51.17;;;29.83;;
24435;SDS011;12616;52.470;13.436;2022-11-15T01:52:14;53.03;;;32.80;;
24435;SDS011;12616;52.470;13.436;2022-11-15T01:54:44;49.58;;;32.50;;
24435;SDS011;12616;52.470;13.436;2022-11-15T01:57:13;58.92;;;33.05;;
24435;SDS011;12616;52.470;13.436;2022-11-15T01:59:41;52.90;;;31.65;;
24435;SDS011;12616;52.470;13.436;2022-11-15T02:02:09;52.70;;;32.67;;
24435;SDS011;12616;52.470;13.436;2022-11-15T02:04:37;57.22;;;32.05;;
24435;SDS011;12616;52.470;13.436;2022-11-15T02:07:08;54.40;;;33.65;;
24435;SDS011;12616;52.470;13.436;2022-11-15T02:09:37;55.50;;;32.35;;
24435;SDS011;12616;52.470;13.436;2022-11-15T02:12:05;56.42;;;30.92;;
24435;SDS011;12616;52.470;13.436;2022-11-15T02:14:38;57.97;;;30.95;;
24435;SDS011;12616;52.470;13.436;2022-11-15T02:17:11;51.83;;;30.63;;
24435;SDS011;12616;52.470;13.436;2022-11-15T02:20:02;51.88;;;33.28;;
24435;SDS011;12616;52.470;13.436;2022-11-15T02:22:46;52.78;;;30.60;;
24435;SDS011;12616;52.470;13.436;2022-11-15T02:25:35;57.58;;;34.58;;
24435;SDS011;12616;52.470;13.436;2022-11-15T02:31:11;52.88;;;31.00;;
24435;SDS011;12616;52.470;13.436;2022-11-15T02:33:49;51.55;;;31.15;;
24435;SDS011;12616;52.470;13.436;2022-11-15T02:36:28;52.92;;;33.33;;
24435;SDS011;12616;52.470;13.436;2022-11-15T02:39:03;56.70;;;32.42;;
24435;SDS011;12616;52.470;13.436;2022-11-15T02:41:39;54.75;;;33.05;;
24435;SDS011;12616;52.470;13.436;2022-11-15T02:44:12;50.45;;;31.33;;
24435;SDS011;12616;52.470;13.436;2022-11-15T02:46:43;48.63;;;30.85;;
24435;SDS011;12616;52.470;13.436;2022-11-15T02:49:33;59.60;;;35.17;;
24435;SDS011;12616;52.470;13.436;2022-11-15T02:52:07;56.75;;;34.15;;
24435;SDS011;12616;52.470;13.436;2022-11-15T02:54:38;49.25;;;31.73;;
24435;SDS011;12616;52.470;13.436;2022-11-15T02:57:09;54.63;;;31.90;;
24435;SDS011;12616;52.470;13.436;2022-11-15T02:59:47;53.40;;;32.72;;
24435;SDS011;12616;52.470;13.436;2022-11-15T03:02:34;56.20;;;32.92;;
24435;SDS011;12616;52.470;13.436;2022-11-15T03:05:17;50.45;;;32.13;;
24435;SDS011;12616;52.470;13.436;2022-11-15T03:07:57;58.65;;;32.92;;
24435;SDS011;12616;52.470;13.436;2022-11-15T03:10:45;51.65;;;32.20;;
24435;SDS011;12616;52.470;13.436;2022-11-15T03:13:26;67.18;;;33.95;;
24435;SDS011;12616;52.470;13.436;2022-11-15T03:16:04;56.88;;;33.33;;
24435;SDS011;12616;52.470;13.436;2022-11-15T03:18:42;53.45;;;31.08;;
24435;SDS011;12616;52.470;13.436;2022-11-15T03:21:17;56.92;;;32.58;;
24435;SDS011;12616;52.470;13.436;2022-11-15T03:23:51;58.72;;;32.88;;
24435;SDS011;12616;52.470;13.436;2022-11-15T03:26:24;60.20;;;33.55;;
24435;SDS011;12616;52.470;13.436;2022-11-15T03:28:59;52.58;;;30.63;;
24435;SDS011;12616;52.470;13.436;2022-11-15T03:31:36;54.35;;;33.10;;
24435;SDS011;12616;52.470;13.436;2022-11-15T03:34:20;56.20;;;33.78;;
24435;SDS011;12616;52.470;13.436;2022-11-15T03:36:57;58.50;;;32.05;;
24435;SDS011;12616;52.470;13.436;2022-11-15T03:39:30;56.85;;;33.63;;
24435;SDS011;12616;52.470;13.436;2022-11-15T03:42:04;63.78;;;35.65;;
24435;SDS011;12616;52.470;13.436;2022-11-15T03:44:47;57.63;;;34.20;;
24435;SDS011;12616;52.470;13.436;2022-11-15T04:04:20;60.13;;;33.90;;
24435;SDS011;12616;52.470;13.436;2022-11-15T04:49:07;54.20;;;31.92;;
24435;SDS011;12616;52.470;13.436;2022-11-15T04:51:43;53.90;;;30.17;;
24435;SDS011;12616;52.470;13.436;2022-11-15T04:54:27;59.97;;;32.70;;
24435;SDS011;12616;52.470;13.436;2022-11-15T04:57:10;61.72;;;32.40;;
24435;SDS011;12616;52.470;13.436;2022-11-15T04:59:36;59.45;;;34.88;;
24435;SDS011;12616;52.470;13.436;2022-11-15T05:02:03;65.75;;;34.58;;
24435;SDS011;12616;52.470;13.436;2022-11-15T05:04:31;52.08;;;31.75;;
24435;SDS011;12616;52.470;13.436;2022-11-15T05:06:57;56.72;;;32.92;;
24435;SDS011;12616;52.470;13.436;2022-11-15T05:09:24;55.88;;;34.72;;
24435;SDS011;12616;52.470;13.436;2022-11-15T05:11:51;55.35;;;31.05;;
24435;SDS011;12616;52.470;13.436;2022-11-15T05:14:18;57.53;;;34.58;;
24435;SDS011;12616;52.470;13.436;2022-11-15T05:16:44;52.08;;;30.70;;
24435;SDS011;12616;52.470;13.436;2022-11-15T05:19:11;53.67;;;30.05;;
24435;SDS011;12616;52.470;13.436;2022-11-15T05:21:39;53.83;;;32.58;;
24435;SDS011;12616;52.470;13.436;2022-11-15T05:24:08;60.03;;;33.63;;
24435;SDS011;12616;52.470;13.436;2022-11-15T05:26:36;62.00;;;34.95;;
24435;SDS011;12616;52.470;13.436;2022-11-15T05:29:02;58.70;;;34.05;;
24435;SDS011;12616;52.470;13.436;2022-11-15T05:31:29;57.75;;;31.65;;
24435;SDS011;12616;52.470;13.436;2022-11-15T05:34:04;54.60;;;32.90;;
24435;SDS011;12616;52.470;13.436;2022-11-15T05:36:31;55.78;;;33.88;;
24435;SDS011;12616;52.470;13.436;2022-11-15T05:39:03;53.45;;;31.50;;
24435;SDS011;12616;52.470;13.436;2022-11-15T05:41:31;56.42;;;32.60;;
24435;SDS011;12616;52.470;13.436;2022-11-15T05:44:00;53.92;;;31.48;;
24435;SDS011;12616;52.470;13.436;2022-11-15T05:46:28;68.03;;;32.60;;
24435;SDS011;12616;52.470;13.436;2022-11-15T05:48:56;55.17;;;32.63;;
24435;SDS011;12616;52.470;13.436;2022-11-15T05:51:23;53.83;;;32.47;;
24435;SDS011;12616;52.470;13.436;2022-11-15T05:53:52;54.42;;;30.92;;
24435;SDS011;12616;52.470;13.436;2022-11-15T05:56:22;52.83;;;32.20;;
24435;SDS011;12616;52.470;13.436;2022-11-15T05:58:49;51.40;;;30.80;;
24435;SDS011;12616;52.470;13.436;2022-11-15T06:01:18;54.53;;;31.77;;
24435;SDS011;12616;52.470;13.436;2022-11-15T06:03:45;56.83;;;31.90;;
24435;SDS011;12616;52.470;13.436;2022-11-15T06:06:12;62.88;;;36.20;;
24435;SDS011;12616;52.470;13.436;2022-11-15T06:08:39;49.13;;;30.08;;
24435;SDS011;12616;52.470;13.436;2022-11-15T06:11:06;54.30;;;31.23;;
24435;SDS011;12616;52.470;13.436;2022-11-15T06:13:35;51.38;;;31.10;;
24435;SDS011;12616;52.470;13.436;2022-11-15T06:16:02;58.15;;;30.92;;
24435;SDS011;12616;52.470;13.436;2022-11-15T06:18:31;49.22;;;28.95;;
24435;SDS011;12616;52.470;13.436;2022-11-15T06:20:59;52.80;;;29.02;;
24435;SDS011;12616;52.470;13.436;2022-11-15T06:23:26;54.35;;;31.25;;
24435;SDS011;12616;52.470;13.436;2022-11-15T06:25:57;54.35;;;33.95;;
24435;SDS011;12616;52.470;13.436;2022-11-15T06:28:35;56.10;;;32.38;;
24435;SDS011;12616;52.470;13.436;2022-11-15T06:31:06;50.28;;;29.38;;
24435;SDS011;12616;52.470;13.436;2022-11-15T06:33:49;53.67;;;32.72;;
24435;SDS011;12616;52.470;13.436;2022-11-15T06:36:17;58.25;;;34.60;;
24435;SDS011;12616;52.470;13.436;2022-11-15T06:38:44;54.17;;;31.13;;
24435;SDS011;12616;52.470;13.436;2022-11-15T06:41:12;56.53;;;32.40;;
24435;SDS011;12616;52.470;13.436;2022-11-15T06:43:47;54.97;;;29.90;;
24435;SDS011;12616;52.470;13.436;2022-11-15T06:46:14;62.65;;;34.60;;
24435;SDS011;12616;52.470;13.436;2022-11-15T06:48:44;58.35;;;32.95;;
24435;SDS011;12616;52.470;13.436;2022-11-15T06:51:18;53.60;;;31.40;;
24435;SDS011;12616;52.470;13.436;2022-11-15T06:53:47;56.15;;;32.08;;
24435;SDS011;12616;52.470;13.436;2022-11-15T06:56:34;49.78;;;32.22;;
24435;SDS011;12616;52.470;13.436;2022-11-15T06:59:07;63.53;;;30.45;;
24435;SDS011;12616;52.470;13.436;2022-11-15T07:01:34;49.70;;;30.45;;
24435;SDS011;12616;52.470;13.436;2022-11-15T07:04:03;54.03;;;32.17;;
24435;SDS011;12616;52.470;13.436;2022-11-15T07:06:30;57.90;;;34.03;;
24435;SDS011;12616;52.470;13.436;2022-11-15T07:08:57;57.65;;;31.10;;
24435;SDS011;12616;52.470;13.436;2022-11-15T07:11:24;61.72;;;32.90;;
24435;SDS011;12616;52.470;13.436;2022-11-15T07:13:51;54.30;;;31.88;;
24435;SDS011;12616;52.470;13.436;2022-11-15T07:16:20;56.25;;;32.50;;
24435;SDS011;12616;52.470;13.436;2022-11-15T07:18:47;56.92;;;33.45;;
24435;SDS011;12616;52.470;13.436;2022-11-15T07:21:14;52.15;;;31.15;;
24435;SDS011;12616;52.470;13.436;2022-11-15T07:23:43;56.42;;;31.70;;
24435;SDS011;12616;52.470;13.436;2022-11-15T07:26:10;59.53;;;32.38;;
24435;SDS011;12616;52.470;13.436;2022-11-15T07:28:38;57.38;;;31.88;;
24435;SDS011;12616;52.470;13.436;2022-11-15T07:31:07;54.38;;;30.48;;
24435;SDS011;12616;52.470;13.436;2022-11-15T07:33:50;52.33;;;29.77;;
24435;SDS011;12616;52.470;13.436;2022-11-15T07:36:50;49.38;;;30.33;;
24435;SDS011;12616;52.470;13.436;2022-11-15T07:39:51;52.15;;;30.15;;
24435;SDS011;12616;52.470;13.436;2022-11-15T07:43:14;47.83;;;31.73;;
24435;SDS011;12616;52.470;13.436;2022-11-15T07:46:03;53.95;;;33.13;;
24435;SDS011;12616;52.470;13.436;2022-11-15T07:52:34;50.13;;;31.15;;
24435;SDS011;12616;52.470;13.436;2022-11-15T07:55:16;62.90;;;32.72;;
24435;SDS011;12616;52.470;13.436;2022-11-15T07:58:06;55.17;;;30.35;;
24435;SDS011;12616;52.470;13.436;2022-11-15T08:00:39;54.33;;;32.78;;
24435;SDS011;12616;52.470;13.436;2022-11-15T08:03:10;58.60;;;33.33;;
24435;SDS011;12616;52.470;13.436;2022-11-15T08:05:49;53.45;;;31.23;;
24435;SDS011;12616;52.470;13.436;2022-11-15T08:08:26;64.80;;;33.65;;
24435;SDS011;12616;52.470;13.436;2022-11-15T08:10:56;53.80;;;32.13;;
24435;SDS011;12616;52.470;13.436;2022-11-15T08:13:23;50.58;;;31.10;;
24435;SDS011;12616;52.470;13.436;2022-11-15T08:15:50;50.25;;;30.85;;
24435;SDS011;12616;52.470;13.436;2022-11-15T08:18:18;59.60;;;34.03;;
24435;SDS011;12616;52.470;13.436;2022-11-15T08:20:50;46.70;;;30.08;;
24435;SDS011;12616;52.470;13.436;2022-11-15T08:23:17;48.25;;;30.75;;
24435;SDS011;12616;52.470;13.436;2022-11-15T08:25:44;54.85;;;30.35;;
24435;SDS011;12616;52.470;13.436;2022-11-15T08:28:11;60.97;;;34.25;;
24435;SDS011;12616;52.470;13.436;2022-11-15T08:30:39;52.53;;;32.17;;
24435;SDS011;12616;52.470;13.436;2022-11-15T08:33:09;51.45;;;31.42;;
24435;SDS011;12616;52.470;13.436;2022-11-15T08:35:38;50.85;;;31.08;;
24435;SDS011;12616;52.470;13.436;2022-11-15T08:38:10;56.83;;;35.88;;
24435;SDS011;12616;52.470;13.436;2022-11-15T08:40:37;51.85;;;32.05;;
24435;SDS011;12616;52.470;13.436;2022-11-15T08:43:09;54.85;;;34.05;;
24435;SDS011;12616;52.470;13.436;2022-11-15T08:46:17;48.90;;;32.22;;
24435;SDS011;12616;52.470;13.436;2022-11-15T08:48:44;50.25;;;32.72;;
24435;SDS011;12616;52.470;13.436;2022-11-15T08:51:14;49.78;;;31.15;;
24435;SDS011;12616;52.470;13.436;2022-11-15T08:53:53;51.08;;;29.58;;
24435;SDS011;12616;52.470;13.436;2022-11-15T08:56:21;47.33;;;31.05;;
24435;SDS011;12616;52.470;13.436;2022-11-15T09:31:41;33.77;;;23.10;;
24435;SDS011;12616;52.470;13.436;2022-11-15T09:45:27;32.77;;;22.37;;
24435;SDS011;12616;52.470;13.436;2022-11-15T09:51:03;44.00;;;24.37;;
24435;SDS011;12616;52.470;13.436;2022-11-15T09:53:36;36.27;;;20.30;;
24435;SDS011;12616;52.470;13.436;2022-11-15T09:56:13;32.17;;;18.93;;
24435;SDS011;12616;52.470;13.436;2022-11-15T10:07:18;41.70;;;24.57;;
24435;SDS011;12616;52.470;13.436;2022-11-15T10:10:03;41.73;;;26.67;;
24435;SDS011;12616;52.470;13.436;2022-11-15T10:13:28;35.03;;;22.60;;
24435;SDS011;12616;52.470;13.436;2022-11-15T10:17:06;30.13;;;20.53;;
24435;SDS011;12616;52.470;13.436;2022-11-15T10:20:27;25.30;;;17.57;;
24435;SDS011;12616;52.470;13.436;2022-11-15T10:23:11;29.50;;;21.60;;
24435;SDS011;12616;52.470;13.436;2022-11-15T10:26:19;30.80;;;20.43;;
24435;SDS011;12616;52.470;13.436;2022-11-15T10:28:56;32.20;;;21.67;;
24435;SDS011;12616;52.470;13.436;2022-11-15T10:31:38;26.37;;;19.43;;
24435;SDS011;12616;52.470;13.436;2022-11-15T10:34:35;24.13;;;17.73;;
24435;SDS011;12616;52.470;13.436;2022-11-15T10:37:10;29.63;;;17.40;;
24435;SDS011;12616;52.470;13.436;2022-11-15T10:43:16;25.83;;;17.20;;
24435;SDS011;12616;52.470;13.436;2022-11-15T10:46:13;25.43;;;17.43;;
24435;SDS011;12616;52.470;13.436;2022-11-15T10:49:16;20.30;;;15.43;;
24435;SDS011;12616;52.470;13.436;2022-11-15T10:51:53;24.73;;;17.77;;
24435;SDS011;12616;52.470;13.436;2022-11-15T10:54:47;21.67;;;14.97;;
24435;SDS011;12616;52.470;13.436;2022-11-15T10:57:29;19.90;;;16.07;;
24435;SDS011;12616;52.470;13.436;2022-11-15T11:00:03;25.70;;;17.97;;
24435;SDS011;12616;52.470;13.436;2022-11-15T11:03:08;27.00;;;18.33;;
24435;SDS011;12616;52.470;13.436;2022-11-15T11:06:20;27.77;;;17.60;;
24435;SDS011;12616;52.470;13.436;2022-11-15T11:08:53;30.03;;;19.73;;
24435;SDS011;12616;52.470;13.436;2022-11-15T11:11:46;27.63;;;18.27;;
24435;SDS011;12616;52.470;13.436;2022-11-15T11:14:39;25.43;;;17.57;;
24435;SDS011;12616;52.470;13.436;2022-11-15T11:17:12;22.27;;;16.97;;
24435;SDS011;12616;52.470;13.436;2022-11-15T11:20:00;25.03;;;17.30;;
24435;SDS011;12616;52.470;13.436;2022-11-15T11:23:17;25.23;;;18.47;;
24435;SDS011;12616;52.470;13.436;2022-11-15T11:26:18;23.30;;;17.27;;
24435;SDS011;12616;52.470;13.436;2022-11-15T11:39:36;23.70;;;16.63;;
24435;SDS011;12616;52.470;13.436;2022-11-15T11:42:40;27.23;;;16.37;;
24435;SDS011;12616;52.470;13.436;2022-11-15T11:45:53;24.10;;;17.77;;
24435;SDS011;12616;52.470;13.436;2022-11-15T11:48:47;23.63;;;14.80;;
24435;SDS011;12616;52.470;13.436;2022-11-15T11:55:16;19.73;;;15.40;;
24435;SDS011;12616;52.470;13.436;2022-11-15T11:58:17;21.83;;;15.90;;
24435;SDS011;12616;52.470;13.436;2022-11-15T12:01:21;24.90;;;17.33;;
24435;SDS011;12616;52.470;13.436;2022-11-15T12:04:26;22.97;;;16.00;;
24435;SDS011;12616;52.470;13.436;2022-11-15T12:10:57;36.63;;;17.43;;
24435;SDS011;12616;52.470;13.436;2022-11-15T12:13:55;23.97;;;17.87;;
24435;SDS011;12616;52.470;13.436;2022-11-15T12:16:50;24.20;;;17.50;;
24435;SDS011;12616;52.470;13.436;2022-11-15T12:22:20;31.07;;;17.57;;
24435;SDS011;12616;52.470;13.436;2022-11-15T12:25:22;23.40;;;17.53;;
24435;SDS011;12616;52.470;13.436;2022-11-15T12:28:11;25.33;;;17.10;;
24435;SDS011;12616;52.470;13.436;2022-11-15T12:30:55;22.07;;;16.17;;
24435;SDS011;12616;52.470;13.436;2022-11-15T12:33:41;24.63;;;15.63;;
24435;SDS011;12616;52.470;13.436;2022-11-15T12:36:30;21.63;;;16.30;;
24435;SDS011;12616;52.470;13.436;2022-11-15T12:46:04;23.73;;;16.90;;
24435;SDS011;12616;52.470;13.436;2022-11-15T12:52:15;22.30;;;16.10;;
24435;SDS011;12616;52.470;13.436;2022-11-15T12:54:56;19.40;;;15.03;;
24435;SDS011;12616;52.470;13.436;2022-11-15T12:57:38;22.73;;;14.67;;
24435;SDS011;12616;52.470;13.436;2022-11-15T13:06:00;24.50;;;15.30;;
24435;SDS011;12616;52.470;13.436;2022-11-15T13:09:00;30.50;;;15.20;;
24435;SDS011;12616;52.470;13.436;2022-11-15T13:11:51;22.40;;;16.50;;
24435;SDS011;12616;52.470;13.436;2022-11-15T13:17:39;29.23;;;18.87;;
24435;SDS011;12616;52.470;13.436;2022-11-15T13:20:20;38.20;;;25.40;;
24435;SDS011;12616;52.470;13.436;2022-11-15T13:23:21;23.27;;;18.63;;
24435;SDS011;12616;52.470;13.436;2022-11-15T13:26:20;24.77;;;17.07;;
24435;SDS011;12616;52.470;13.436;2022-11-15T13:28:59;22.40;;;16.30;;
24435;SDS011;12616;52.470;13.436;2022-11-15T13:31:34;21.17;;;15.13;;
24435;SDS011;12616;52.470;13.436;2022-11-15T13:34:24;20.97;;;15.20;;
24435;SDS011;12616;52.470;13.436;2022-11-15T13:37:11;28.00;;;16.97;;
24435;SDS011;12616;52.470;13.436;2022-11-15T13:43:02;20.87;;;14.50;;
24435;SDS011;12616;52.470;13.436;2022-11-15T13:46:04;19.33;;;14.27;;
24435;SDS011;12616;52.470;13.436;2022-11-15T13:48:39;20.03;;;14.70;;
24435;SDS011;12616;52.470;13.436;2022-11-15T13:51:09;18.07;;;14.13;;
24435;SDS011;12616;52.470;13.436;2022-11-15T13:53:46;14.10;;;12.20;;
24435;SDS011;12616;52.470;13.436;2022-11-15T13:56:19;17.50;;;13.93;;
24435;SDS011;12616;52.470;13.436;2022-11-15T13:59:08;19.80;;;14.37;;
24435;SDS011;12616;52.470;13.436;2022-11-15T14:01:39;19.03;;;13.10;;
24435;SDS011;12616;52.470;13.436;2022-11-15T14:04:09;20.87;;;13.97;;
24435;SDS011;12616;52.470;13.436;2022-11-15T14:06:44;24.10;;;16.07;;
24435;SDS011;12616;52.470;13.436;2022-11-15T14:09:24;24.90;;;15.53;;
24435;SDS011;12616;52.470;13.436;2022-11-15T14:11:58;24.93;;;15.77;;
24435;SDS011;12616;52.470;13.436;2022-11-15T14:14:28;20.90;;;13.93;;
24435;SDS011;12616;52.470;13.436;2022-11-15T14:16:56;24.90;;;17.20;;
24435;SDS011;12616;52.470;13.436;2022-11-15T14:19:34;32.43;;;15.67;;
24435;SDS011;12616;52.470;13.436;2022-11-15T14:22:13;38.33;;;18.13;;
24435;SDS011;12616;52.470;13.436;2022-11-15T14:24:42;23.13;;;17.27;;
24435;SDS011;12616;52.470;13.436;2022-11-15T14:27:17;22.43;;;14.87;;
24435;SDS011;12616;52.470;13.436;2022-11-15T14:29:48;20.90;;;14.60;;
24435;SDS011;12616;52.470;13.436;2022-11-15T14:32:16;20.13;;;14.90;;
24435;SDS011;12616;52.470;13.436;2022-11-15T14:34:49;20.93;;;14.83;;
24435;SDS011;12616;52.470;13.436;2022-11-15T14:37:21;23.40;;;14.43;;
24435;SDS011;12616;52.470;13.436;2022-11-15T14:39:49;23.03;;;15.63;;
24435;SDS011;12616;52.470;13.436;2022-11-15T14:42:17;20.70;;;16.20;;
24435;SDS011;12616;52.470;13.436;2022-11-15T14:44:44;18.70;;;13.83;;
24435;SDS011;12616;52.470;13.436;2022-11-15T14:47:32;22.37;;;14.80;;
24435;SDS011;12616;52.470;13.436;2022-11-15T14:50:00;21.17;;;15.30;;
24435;SDS011;12616;52.470;13.436;2022-11-15T14:52:31;30.23;;;17.40;;
24435;SDS011;12616;52.470;13.436;2022-11-15T14:55:00;18.80;;;15.17;;
24435;SDS011;12616;52.470;13.436;2022-11-15T14:57:48;20.27;;;14.53;;
24435;SDS011;12616;52.470;13.436;2022-11-15T15:00:20;24.60;;;15.40;;
24435;SDS011;12616;52.470;13.436;2022-11-15T15:02:53;23.20;;;14.87;;
24435;SDS011;12616;52.470;13.436;2022-11-15T15:05:20;22.13;;;14.40;;
24435;SDS011;12616;52.470;13.436;2022-11-15T15:07:52;18.43;;;14.27;;
24435;SDS011;12616;52.470;13.436;2022-11-15T15:10:19;22.13;;;16.17;;
24435;SDS011;12616;52.470;13.436;2022-11-15T15:12:47;20.13;;;14.73;;
24435;SDS011;12616;52.470;13.436;2022-11-15T15:15:16;21.97;;;14.00;;
24435;SDS011;12616;52.470;13.436;2022-11-15T15:17:45;19.20;;;14.50;;
24435;SDS011;12616;52.470;13.436;2022-11-15T15:20:14;21.80;;;15.40;;
24435;SDS011;12616;52.470;13.436;2022-11-15T15:23:07;20.73;;;15.93;;
24435;SDS011;12616;52.470;13.436;2022-11-15T15:28:49;18.20;;;15.00;;
24435;SDS011;12616;52.470;13.436;2022-11-15T15:31:25;20.80;;;14.80;;
24435;SDS011;12616;52.470;13.436;2022-11-15T15:33:53;18.97;;;14.90;;
24435;SDS011;12616;52.470;13.436;2022-11-15T15:36:28;22.23;;;14.67;;
24435;SDS011;12616;52.470;13.436;2022-11-15T15:38:58;20.70;;;14.50;;
24435;SDS011;12616;52.470;13.436;2022-11-15T15:41:33;19.63;;;15.43;;
24435;SDS011;12616;52.470;13.436;2022-11-15T15:44:03;28.50;;;16.17;;
24435;SDS011;12616;52.470;13.436;2022-11-15T15:46:31;23.70;;;16.50;;
24435;SDS011;12616;52.470;13.436;2022-11-15T15:49:01;22.53;;;16.23;;
24435;SDS011;12616;52.470;13.436;2022-11-15T15:51:56;20.53;;;15.63;;
24435;SDS011;12616;52.470;13.436;2022-11-15T15:54:24;26.23;;;18.80;;
24435;SDS011;12616;52.470;13.436;2022-11-15T15:56:51;28.50;;;17.80;;
24435;SDS011;12616;52.470;13.436;2022-11-15T15:59:18;31.50;;;18.43;;
24435;SDS011;12616;52.470;13.436;2022-11-15T16:01:47;28.93;;;18.90;;
24435;SDS011;12616;52.470;13.436;2022-11-15T16:04:45;26.90;;;18.47;;
24435;SDS011;12616;52.470;13.436;2022-11-15T16:07:32;24.17;;;17.40;;
24435;SDS011;12616;52.470;13.436;2022-11-15T16:10:02;30.77;;;19.70;;
24435;SDS011;12616;52.470;13.436;2022-11-15T16:12:31;25.97;;;19.90;;
24435;SDS011;12616;52.470;13.436;2022-11-15T16:14:59;24.33;;;18.13;;
24435;SDS011;12616;52.470;13.436;2022-11-15T16:17:39;30.90;;;19.83;;
24435;SDS011;12616;52.470;13.436;2022-11-15T16:23:43;32.47;;;21.90;;
24435;SDS011;12616;52.470;13.436;2022-11-15T16:26:14;25.30;;;19.13;;
24435;SDS011;12616;52.470;13.436;2022-11-15T16:28:47;29.90;;;19.10;;
24435;SDS011;12616;52.470;13.436;2022-11-15T16:31:21;27.00;;;19.10;;
24435;SDS011;12616;52.470;13.436;2022-11-15T16:33:52;31.53;;;20.60;;
24435;SDS011;12616;52.470;13.436;2022-11-15T16:36:21;30.43;;;20.80;;
24435;SDS011;12616;52.470;13.436;2022-11-15T16:39:15;27.90;;;21.40;;
24435;SDS011;12616;52.470;13.436;2022-11-15T16:41:44;29.40;;;21.43;;
24435;SDS011;12616;52.470;13.436;2022-11-15T16:44:11;32.87;;;23.00;;
24435;SDS011;12616;52.470;13.436;2022-11-15T16:46:40;38.20;;;27.10;;
24435;SDS011;12616;52.470;13.436;2022-11-15T16:49:08;45.53;;;28.00;;
24435;SDS011;12616;52.470;13.436;2022-11-15T16:51:41;39.30;;;27.10;;
24435;SDS011;12616;52.470;13.436;2022-11-15T16:54:12;37.00;;;26.47;;
24435;SDS011;12616;52.470;13.436;2022-11-15T16:57:09;40.93;;;27.17;;
24435;SDS011;12616;52.470;13.436;2022-11-15T16:59:49;40.03;;;27.70;;
24435;SDS011;12616;52.470;13.436;2022-11-15T17:02:39;37.37;;;27.37;;
24435;SDS011;12616;52.470;13.436;2022-11-15T17:05:26;49.53;;;29.50;;
24435;SDS011;12616;52.470;13.436;2022-11-15T17:08:04;44.83;;;30.50;;
24435;SDS011;12616;52.470;13.436;2022-11-15T17:10:40;46.53;;;30.37;;
24435;SDS011;12616;52.470;13.436;2022-11-15T17:13:16;46.37;;;30.57;;
24435;SDS011;12616;52.470;13.436;2022-11-15T17:15:47;42.97;;;28.10;;
24435;SDS011;12616;52.470;13.436;2022-11-15T17:18:22;40.83;;;29.33;;
24435;SDS011;12616;52.470;13.436;2022-11-15T17:24:22;50.67;;;33.70;;
24435;SDS011;12616;52.470;13.436;2022-11-15T17:26:55;51.40;;;32.73;;
24435;SDS011;12616;52.470;13.436;2022-11-15T17:29:38;43.50;;;31.33;;
24435;SDS011;12616;52.470;13.436;2022-11-15T17:32:15;50.63;;;35.50;;
24435;SDS011;12616;52.470;13.436;2022-11-15T17:34:54;51.20;;;33.03;;
24435;SDS011;12616;52.470;13.436;2022-11-15T17:37:25;53.07;;;36.07;;
24435;SDS011;12616;52.470;13.436;2022-11-15T17:39:52;55.67;;;36.57;;
24435;SDS011;12616;52.470;13.436;2022-11-15T17:42:35;60.73;;;39.10;;
24435;SDS011;12616;52.470;13.436;2022-11-15T17:45:06;53.43;;;36.60;;
24435;SDS011;12616;52.470;13.436;2022-11-15T17:47:38;58.47;;;40.20;;
24435;SDS011;12616;52.470;13.436;2022-11-15T17:50:09;56.97;;;37.67;;
24435;SDS011;12616;52.470;13.436;2022-11-15T17:52:42;60.13;;;37.80;;
24435;SDS011;12616;52.470;13.436;2022-11-15T17:55:22;59.80;;;38.50;;
24435;SDS011;12616;52.470;13.436;2022-11-15T17:58:10;61.30;;;39.47;;
24435;SDS011;12616;52.470;13.436;2022-11-15T18:00:42;56.70;;;38.57;;
24435;SDS011;12616;52.470;13.436;2022-11-15T18:03:09;63.45;;;39.50;;
24435;SDS011;12616;52.470;13.436;2022-11-15T18:05:36;68.00;;;38.60;;
24435;SDS011;12616;52.470;13.436;2022-11-15T18:08:05;59.42;;;36.72;;
24435;SDS011;12616;52.470;13.436;2022-11-15T18:10:31;59.70;;;36.90;;
24435;SDS011;12616;52.470;13.436;2022-11-15T18:12:58;57.77;;;37.10;;
24435;SDS011;12616;52.470;13.436;2022-11-15T18:15:26;63.03;;;36.13;;
24435;SDS011;12616;52.470;13.436;2022-11-15T18:17:53;60.90;;;37.37;;
24435;SDS011;12616;52.470;13.436;2022-11-15T18:20:20;56.17;;;35.30;;
24435;SDS011;12616;52.470;13.436;2022-11-15T18:22:47;52.80;;;35.58;;
24435;SDS011;12616;52.470;13.436;2022-11-15T18:25:14;55.65;;;37.33;;
24435;SDS011;12616;52.470;13.436;2022-11-15T18:27:41;59.67;;;36.70;;
24435;SDS011;12616;52.470;13.436;2022-11-15T18:30:10;60.13;;;38.10;;
24435;SDS011;12616;52.470;13.436;2022-11-15T18:32:39;58.17;;;39.67;;
24435;SDS011;12616;52.470;13.436;2022-11-15T18:35:06;58.33;;;39.90;;
24435;SDS011;12616;52.470;13.436;2022-11-15T18:37:33;65.38;;;39.15;;
24435;SDS011;12616;52.470;13.436;2022-11-15T18:40:01;57.13;;;38.60;;